sensor_id;sensor_type;location;lat;lon;timestamp;P1;durP1;ratioP1;P2;durP2;ratioP2
10403;SDS011;5248;47.374;8.486;2022-07-30T00:00:57;2.85;;;2.40;;
10403;SDS011;5248;47.374;8.486;2022-07-30T00:03:24;2.50;;;2.30;;
10403;SDS011;5248;47.374;8.486;2022-07-30T00:05:51;2.28;;;2.17;;
10403;SDS011;5248;47.374;8.486;2022-07-30T00:08:18;2.60;;;2.40;;
10403;SDS011;5248;47.374;8.486;2022-07-30T00:10:45;2.10;;;2.00;;
10403;SDS011;5248;47.374;8.486;2022-07-30T00:13:13;2.55;;;2.45;;
10403;SDS011;5248;47.374;8.486;2022-07-30T00:15:40;2.10;;;2.00;;
10403;SDS011;5248;47.374;8.486;2022-07-30T00:18:07;2.20;;;2.10;;
10403;SDS011;5248;47.374;8.486;2022-07-30T00:20:33;2.70;;;2.50;;
10403;SDS011;5248;47.374;8.486;2022-07-30T00:23:01;2.30;;;2.10;;
10403;SDS011;5248;47.374;8.486;2022-07-30T00:25:28;2.30;;;2.15;;
10403;SDS011;5248;47.374;8.486;2022-07-30T00:27:55;2.17;;;2.08;;
10403;SDS011;5248;47.374;8.486;2022-07-30T00:30:24;1.98;;;1.88;;
10403;SDS011;5248;47.374;8.486;2022-07-30T00:32:52;2.33;;;2.22;;
10403;SDS011;5248;47.374;8.486;2022-07-30T00:35:19;2.15;;;2.00;;
10403;SDS011;5248;47.374;8.486;2022-07-30T00:37:46;3.45;;;2.45;;
10403;SDS011;5248;47.374;8.486;2022-07-30T00:40:12;2.15;;;2.03;;
10403;SDS011;5248;47.374;8.486;2022-07-30T00:42:40;2.45;;;2.25;;
10403;SDS011;5248;47.374;8.486;2022-07-30T00:45:08;2.60;;;2.45;;
10403;SDS011;5248;47.374;8.486;2022-07-30T00:47:37;2.70;;;2.47;;
10403;SDS011;5248;47.374;8.486;2022-07-30T00:50:05;2.83;;;2.67;;
10403;SDS011;5248;47.374;8.486;2022-07-30T00:52:33;2.80;;;2.63;;
10403;SDS011;5248;47.374;8.486;2022-07-30T00:55:00;2.80;;;2.50;;
10403;SDS011;5248;47.374;8.486;2022-07-30T00:57:27;2.45;;;2.30;;
10403;SDS011;5248;47.374;8.486;2022-07-30T00:59:54;2.70;;;2.55;;
10403;SDS011;5248;47.374;8.486;2022-07-30T01:02:21;2.80;;;2.60;;
10403;SDS011;5248;47.374;8.486;2022-07-30T01:04:49;3.03;;;2.83;;
10403;SDS011;5248;47.374;8.486;2022-07-30T01:07:15;2.53;;;2.30;;
10403;SDS011;5248;47.374;8.486;2022-07-30T01:09:42;3.03;;;2.50;;
10403;SDS011;5248;47.374;8.486;2022-07-30T01:12:09;2.80;;;2.60;;
10403;SDS011;5248;47.374;8.486;2022-07-30T01:14:37;2.63;;;2.53;;
10403;SDS011;5248;47.374;8.486;2022-07-30T01:17:06;2.65;;;2.45;;
10403;SDS011;5248;47.374;8.486;2022-07-30T01:19:33;2.60;;;2.40;;
10403;SDS011;5248;47.374;8.486;2022-07-30T01:22:16;2.40;;;2.30;;
10403;SDS011;5248;47.374;8.486;2022-07-30T01:24:51;2.40;;;2.30;;
10403;SDS011;5248;47.374;8.486;2022-07-30T01:27:22;2.45;;;2.35;;
10403;SDS011;5248;47.374;8.486;2022-07-30T01:29:51;2.33;;;2.22;;
10403;SDS011;5248;47.374;8.486;2022-07-30T01:32:17;4.20;;;2.75;;
10403;SDS011;5248;47.374;8.486;2022-07-30T01:34:44;2.30;;;2.20;;
10403;SDS011;5248;47.374;8.486;2022-07-30T01:37:12;2.70;;;2.50;;
10403;SDS011;5248;47.374;8.486;2022-07-30T01:39:39;2.65;;;2.45;;
10403;SDS011;5248;47.374;8.486;2022-07-30T01:42:06;3.35;;;2.40;;
10403;SDS011;5248;47.374;8.486;2022-07-30T01:44:35;2.90;;;2.50;;
10403;SDS011;5248;47.374;8.486;2022-07-30T01:47:03;2.60;;;2.40;;
10403;SDS011;5248;47.374;8.486;2022-07-30T01:49:30;2.50;;;2.40;;
10403;SDS011;5248;47.374;8.486;2022-07-30T01:51:57;3.40;;;2.35;;
10403;SDS011;5248;47.374;8.486;2022-07-30T01:54:25;2.60;;;2.40;;
10403;SDS011;5248;47.374;8.486;2022-07-30T01:56:53;3.28;;;2.72;;
10403;SDS011;5248;47.374;8.486;2022-07-30T01:59:20;2.55;;;2.45;;
10403;SDS011;5248;47.374;8.486;2022-07-30T02:01:48;2.58;;;2.40;;
10403;SDS011;5248;47.374;8.486;2022-07-30T02:04:15;2.80;;;2.60;;
10403;SDS011;5248;47.374;8.486;2022-07-30T02:06:43;3.00;;;2.80;;
10403;SDS011;5248;47.374;8.486;2022-07-30T02:09:12;2.83;;;2.70;;
10403;SDS011;5248;47.374;8.486;2022-07-30T02:11:42;2.63;;;2.47;;
10403;SDS011;5248;47.374;8.486;2022-07-30T02:14:28;2.53;;;2.38;;
10403;SDS011;5248;47.374;8.486;2022-07-30T02:16:58;2.72;;;2.58;;
10403;SDS011;5248;47.374;8.486;2022-07-30T02:19:28;2.55;;;2.35;;
10403;SDS011;5248;47.374;8.486;2022-07-30T02:22:00;3.55;;;2.58;;
10403;SDS011;5248;47.374;8.486;2022-07-30T02:24:29;2.70;;;2.50;;
10403;SDS011;5248;47.374;8.486;2022-07-30T02:27:01;2.88;;;2.60;;
10403;SDS011;5248;47.374;8.486;2022-07-30T02:29:30;3.38;;;2.58;;
10403;SDS011;5248;47.374;8.486;2022-07-30T02:32:00;2.72;;;2.63;;
10403;SDS011;5248;47.374;8.486;2022-07-30T02:34:31;2.88;;;2.67;;
10403;SDS011;5248;47.374;8.486;2022-07-30T02:36:59;2.58;;;2.47;;
10403;SDS011;5248;47.374;8.486;2022-07-30T02:39:26;2.58;;;2.40;;
10403;SDS011;5248;47.374;8.486;2022-07-30T02:41:54;2.90;;;2.65;;
10403;SDS011;5248;47.374;8.486;2022-07-30T02:44:22;3.03;;;2.83;;
10403;SDS011;5248;47.374;8.486;2022-07-30T02:46:49;2.70;;;2.50;;
10403;SDS011;5248;47.374;8.486;2022-07-30T02:49:18;2.53;;;2.33;;
10403;SDS011;5248;47.374;8.486;2022-07-30T02:51:45;2.63;;;2.53;;
10403;SDS011;5248;47.374;8.486;2022-07-30T02:54:13;2.60;;;2.45;;
10403;SDS011;5248;47.374;8.486;2022-07-30T02:56:40;2.70;;;2.50;;
10403;SDS011;5248;47.374;8.486;2022-07-30T02:59:07;3.20;;;3.00;;
10403;SDS011;5248;47.374;8.486;2022-07-30T03:01:35;2.92;;;2.72;;
10403;SDS011;5248;47.374;8.486;2022-07-30T03:04:03;3.42;;;2.38;;
10403;SDS011;5248;47.374;8.486;2022-07-30T03:06:32;2.92;;;2.72;;
10403;SDS011;5248;47.374;8.486;2022-07-30T03:08:59;2.85;;;2.65;;
10403;SDS011;5248;47.374;8.486;2022-07-30T03:11:27;3.17;;;3.00;;
10403;SDS011;5248;47.374;8.486;2022-07-30T03:13:54;4.50;;;2.83;;
10403;SDS011;5248;47.374;8.486;2022-07-30T03:16:22;3.03;;;2.80;;
10403;SDS011;5248;47.374;8.486;2022-07-30T03:18:50;3.20;;;2.90;;
10403;SDS011;5248;47.374;8.486;2022-07-30T03:21:18;2.90;;;2.70;;
10403;SDS011;5248;47.374;8.486;2022-07-30T03:23:47;3.13;;;2.60;;
10403;SDS011;5248;47.374;8.486;2022-07-30T03:26:14;3.00;;;2.80;;
10403;SDS011;5248;47.374;8.486;2022-07-30T03:28:45;2.70;;;2.60;;
10403;SDS011;5248;47.374;8.486;2022-07-30T03:31:12;4.80;;;3.03;;
10403;SDS011;5248;47.374;8.486;2022-07-30T03:33:40;3.40;;;2.80;;
10403;SDS011;5248;47.374;8.486;2022-07-30T03:36:07;2.78;;;2.58;;
10403;SDS011;5248;47.374;8.486;2022-07-30T03:38:35;3.20;;;3.00;;
10403;SDS011;5248;47.374;8.486;2022-07-30T03:41:03;3.45;;;2.92;;
10403;SDS011;5248;47.374;8.486;2022-07-30T03:43:30;2.85;;;2.60;;
10403;SDS011;5248;47.374;8.486;2022-07-30T03:45:57;3.10;;;2.80;;
10403;SDS011;5248;47.374;8.486;2022-07-30T03:48:24;3.15;;;2.65;;
10403;SDS011;5248;47.374;8.486;2022-07-30T03:50:51;6.07;;;2.95;;
10403;SDS011;5248;47.374;8.486;2022-07-30T03:53:19;3.00;;;2.88;;
10403;SDS011;5248;47.374;8.486;2022-07-30T03:55:48;3.50;;;3.20;;
10403;SDS011;5248;47.374;8.486;2022-07-30T03:58:16;3.47;;;3.20;;
10403;SDS011;5248;47.374;8.486;2022-07-30T04:00:43;3.50;;;3.17;;
10403;SDS011;5248;47.374;8.486;2022-07-30T04:03:12;4.00;;;3.03;;
10403;SDS011;5248;47.374;8.486;2022-07-30T04:05:40;4.07;;;3.10;;
10403;SDS011;5248;47.374;8.486;2022-07-30T04:08:07;3.20;;;3.00;;
10403;SDS011;5248;47.374;8.486;2022-07-30T04:10:34;3.17;;;2.97;;
10403;SDS011;5248;47.374;8.486;2022-07-30T04:13:00;3.40;;;3.20;;
10403;SDS011;5248;47.374;8.486;2022-07-30T04:15:28;3.45;;;3.15;;
10403;SDS011;5248;47.374;8.486;2022-07-30T04:17:57;4.43;;;3.10;;
10403;SDS011;5248;47.374;8.486;2022-07-30T04:20:26;3.38;;;3.03;;
10403;SDS011;5248;47.374;8.486;2022-07-30T04:22:56;3.43;;;3.23;;
10403;SDS011;5248;47.374;8.486;2022-07-30T04:25:23;3.03;;;2.83;;
10403;SDS011;5248;47.374;8.486;2022-07-30T04:27:51;3.27;;;3.07;;
10403;SDS011;5248;47.374;8.486;2022-07-30T04:30:18;2.97;;;2.80;;
10403;SDS011;5248;47.374;8.486;2022-07-30T04:32:46;3.15;;;2.72;;
10403;SDS011;5248;47.374;8.486;2022-07-30T04:35:13;3.20;;;3.00;;
10403;SDS011;5248;47.374;8.486;2022-07-30T04:37:40;3.17;;;2.97;;
10403;SDS011;5248;47.374;8.486;2022-07-30T04:40:07;2.88;;;2.78;;
10403;SDS011;5248;47.374;8.486;2022-07-30T04:42:35;3.20;;;3.00;;
10403;SDS011;5248;47.374;8.486;2022-07-30T04:45:01;3.47;;;2.58;;
10403;SDS011;5248;47.374;8.486;2022-07-30T04:47:29;3.10;;;2.88;;
10403;SDS011;5248;47.374;8.486;2022-07-30T04:49:57;5.60;;;2.95;;
10403;SDS011;5248;47.374;8.486;2022-07-30T04:52:24;3.03;;;2.83;;
10403;SDS011;5248;47.374;8.486;2022-07-30T04:54:52;3.38;;;3.17;;
10403;SDS011;5248;47.374;8.486;2022-07-30T04:57:20;3.70;;;3.40;;
10403;SDS011;5248;47.374;8.486;2022-07-30T04:59:47;3.60;;;3.30;;
10403;SDS011;5248;47.374;8.486;2022-07-30T05:02:14;3.10;;;3.00;;
10403;SDS011;5248;47.374;8.486;2022-07-30T05:04:41;3.33;;;3.13;;
10403;SDS011;5248;47.374;8.486;2022-07-30T05:07:09;3.20;;;2.97;;
10403;SDS011;5248;47.374;8.486;2022-07-30T05:09:37;2.85;;;2.65;;
10403;SDS011;5248;47.374;8.486;2022-07-30T05:12:05;3.40;;;3.10;;
10403;SDS011;5248;47.374;8.486;2022-07-30T05:14:32;2.88;;;2.70;;
10403;SDS011;5248;47.374;8.486;2022-07-30T05:16:58;3.40;;;3.10;;
10403;SDS011;5248;47.374;8.486;2022-07-30T05:19:25;3.47;;;2.97;;
10403;SDS011;5248;47.374;8.486;2022-07-30T05:21:52;10.05;;;3.72;;
10403;SDS011;5248;47.374;8.486;2022-07-30T05:24:20;4.53;;;3.50;;
10403;SDS011;5248;47.374;8.486;2022-07-30T05:26:47;8.43;;;3.80;;
10403;SDS011;5248;47.374;8.486;2022-07-30T05:29:13;5.07;;;3.55;;
10403;SDS011;5248;47.374;8.486;2022-07-30T05:31:40;3.70;;;3.40;;
10403;SDS011;5248;47.374;8.486;2022-07-30T05:34:07;3.50;;;3.20;;
10403;SDS011;5248;47.374;8.486;2022-07-30T05:36:33;3.40;;;3.20;;
10403;SDS011;5248;47.374;8.486;2022-07-30T05:39:00;4.50;;;3.08;;
10403;SDS011;5248;47.374;8.486;2022-07-30T05:41:30;3.38;;;3.15;;
10403;SDS011;5248;47.374;8.486;2022-07-30T05:43:58;3.60;;;3.30;;
10403;SDS011;5248;47.374;8.486;2022-07-30T05:46:25;3.60;;;3.30;;
10403;SDS011;5248;47.374;8.486;2022-07-30T05:48:52;3.60;;;3.30;;
10403;SDS011;5248;47.374;8.486;2022-07-30T05:51:19;3.65;;;3.35;;
10403;SDS011;5248;47.374;8.486;2022-07-30T05:53:46;5.65;;;3.80;;
10403;SDS011;5248;47.374;8.486;2022-07-30T05:56:13;3.63;;;3.42;;
10403;SDS011;5248;47.374;8.486;2022-07-30T05:58:41;6.78;;;4.10;;
10403;SDS011;5248;47.374;8.486;2022-07-30T06:01:07;4.68;;;3.50;;
10403;SDS011;5248;47.374;8.486;2022-07-30T06:03:36;3.95;;;3.63;;
10403;SDS011;5248;47.374;8.486;2022-07-30T06:06:03;3.50;;;3.10;;
10403;SDS011;5248;47.374;8.486;2022-07-30T06:08:30;3.53;;;3.20;;
10403;SDS011;5248;47.374;8.486;2022-07-30T06:10:57;3.53;;;3.30;;
10403;SDS011;5248;47.374;8.486;2022-07-30T06:13:24;3.70;;;3.40;;
10403;SDS011;5248;47.374;8.486;2022-07-30T06:15:52;3.50;;;3.20;;
10403;SDS011;5248;47.374;8.486;2022-07-30T06:18:19;3.65;;;3.45;;
10403;SDS011;5248;47.374;8.486;2022-07-30T06:20:45;3.50;;;3.22;;
10403;SDS011;5248;47.374;8.486;2022-07-30T06:23:13;3.67;;;3.38;;
10403;SDS011;5248;47.374;8.486;2022-07-30T06:25:40;3.58;;;3.28;;
10403;SDS011;5248;47.374;8.486;2022-07-30T06:28:06;3.22;;;3.03;;
10403;SDS011;5248;47.374;8.486;2022-07-30T06:30:33;4.05;;;3.50;;
10403;SDS011;5248;47.374;8.486;2022-07-30T06:33:01;7.38;;;3.20;;
10403;SDS011;5248;47.374;8.486;2022-07-30T06:35:28;3.42;;;3.13;;
10403;SDS011;5248;47.374;8.486;2022-07-30T06:37:58;3.42;;;3.10;;
10403;SDS011;5248;47.374;8.486;2022-07-30T06:40:24;3.28;;;3.03;;
10403;SDS011;5248;47.374;8.486;2022-07-30T06:42:51;3.95;;;2.92;;
10403;SDS011;5248;47.374;8.486;2022-07-30T06:45:18;3.95;;;2.83;;
10403;SDS011;5248;47.374;8.486;2022-07-30T06:47:44;3.80;;;3.45;;
10403;SDS011;5248;47.374;8.486;2022-07-30T06:50:12;3.15;;;2.78;;
10403;SDS011;5248;47.374;8.486;2022-07-30T06:52:39;2.92;;;2.78;;
10403;SDS011;5248;47.374;8.486;2022-07-30T06:55:06;3.17;;;2.95;;
10403;SDS011;5248;47.374;8.486;2022-07-30T06:57:33;3.33;;;3.10;;
10403;SDS011;5248;47.374;8.486;2022-07-30T06:59:59;3.13;;;2.92;;
10403;SDS011;5248;47.374;8.486;2022-07-30T07:02:26;3.22;;;3.03;;
10403;SDS011;5248;47.374;8.486;2022-07-30T07:04:53;3.85;;;2.72;;
10403;SDS011;5248;47.374;8.486;2022-07-30T07:07:21;3.40;;;3.10;;
10403;SDS011;5248;47.374;8.486;2022-07-30T07:09:47;3.42;;;3.13;;
10403;SDS011;5248;47.374;8.486;2022-07-30T07:12:14;5.63;;;3.00;;
10403;SDS011;5248;47.374;8.486;2022-07-30T07:14:41;3.13;;;2.80;;
10403;SDS011;5248;47.374;8.486;2022-07-30T07:17:08;3.53;;;2.90;;
10403;SDS011;5248;47.374;8.486;2022-07-30T07:19:35;3.10;;;2.90;;
10403;SDS011;5248;47.374;8.486;2022-07-30T07:22:02;3.10;;;2.90;;
10403;SDS011;5248;47.374;8.486;2022-07-30T07:24:30;4.68;;;3.03;;
10403;SDS011;5248;47.374;8.486;2022-07-30T07:26:56;3.42;;;2.90;;
10403;SDS011;5248;47.374;8.486;2022-07-30T07:29:23;4.25;;;2.75;;
10403;SDS011;5248;47.374;8.486;2022-07-30T07:31:49;4.90;;;3.00;;
10403;SDS011;5248;47.374;8.486;2022-07-30T07:34:16;3.63;;;2.80;;
10403;SDS011;5248;47.374;8.486;2022-07-30T07:36:42;2.53;;;2.40;;
10403;SDS011;5248;47.374;8.486;2022-07-30T07:39:10;2.80;;;2.60;;
10403;SDS011;5248;47.374;8.486;2022-07-30T07:41:38;3.08;;;2.63;;
10403;SDS011;5248;47.374;8.486;2022-07-30T07:44:05;2.65;;;2.40;;
10403;SDS011;5248;47.374;8.486;2022-07-30T07:46:33;2.85;;;2.65;;
10403;SDS011;5248;47.374;8.486;2022-07-30T07:49:00;2.53;;;2.35;;
10403;SDS011;5248;47.374;8.486;2022-07-30T07:51:26;3.53;;;2.60;;
10403;SDS011;5248;47.374;8.486;2022-07-30T07:53:53;3.90;;;2.47;;
10403;SDS011;5248;47.374;8.486;2022-07-30T07:56:20;2.78;;;2.58;;
10403;SDS011;5248;47.374;8.486;2022-07-30T07:58:48;2.53;;;2.25;;
10403;SDS011;5248;47.374;8.486;2022-07-30T08:01:19;2.47;;;2.22;;
10403;SDS011;5248;47.374;8.486;2022-07-30T08:03:46;3.13;;;2.20;;
10403;SDS011;5248;47.374;8.486;2022-07-30T08:06:12;2.53;;;2.10;;
10403;SDS011;5248;47.374;8.486;2022-07-30T08:08:39;2.55;;;2.17;;
10403;SDS011;5248;47.374;8.486;2022-07-30T08:11:06;3.80;;;2.10;;
10403;SDS011;5248;47.374;8.486;2022-07-30T08:13:32;2.45;;;2.25;;
10403;SDS011;5248;47.374;8.486;2022-07-30T08:16:01;3.80;;;2.17;;
10403;SDS011;5248;47.374;8.486;2022-07-30T08:18:28;5.95;;;2.60;;
10403;SDS011;5248;47.374;8.486;2022-07-30T08:20:54;2.90;;;2.70;;
10403;SDS011;5248;47.374;8.486;2022-07-30T08:23:21;2.65;;;2.45;;
10403;SDS011;5248;47.374;8.486;2022-07-30T08:25:48;2.95;;;2.58;;
10403;SDS011;5248;47.374;8.486;2022-07-30T08:28:15;2.55;;;2.40;;
10403;SDS011;5248;47.374;8.486;2022-07-30T08:30:42;3.03;;;2.35;;
10403;SDS011;5248;47.374;8.486;2022-07-30T08:33:10;3.22;;;2.60;;
10403;SDS011;5248;47.374;8.486;2022-07-30T08:35:37;2.60;;;2.40;;
10403;SDS011;5248;47.374;8.486;2022-07-30T08:38:03;3.45;;;2.50;;
10403;SDS011;5248;47.374;8.486;2022-07-30T08:40:30;2.70;;;2.50;;
10403;SDS011;5248;47.374;8.486;2022-07-30T08:42:58;2.95;;;2.65;;
10403;SDS011;5248;47.374;8.486;2022-07-30T08:45:25;3.10;;;2.90;;
10403;SDS011;5248;47.374;8.486;2022-07-30T08:47:52;3.78;;;2.22;;
10403;SDS011;5248;47.374;8.486;2022-07-30T08:50:21;3.15;;;2.63;;
10403;SDS011;5248;47.374;8.486;2022-07-30T08:52:47;3.47;;;2.83;;
10403;SDS011;5248;47.374;8.486;2022-07-30T08:55:15;3.17;;;2.88;;
10403;SDS011;5248;47.374;8.486;2022-07-30T08:57:41;2.95;;;2.38;;
10403;SDS011;5248;47.374;8.486;2022-07-30T09:00:08;3.28;;;2.58;;
10403;SDS011;5248;47.374;8.486;2022-07-30T09:02:38;2.72;;;2.53;;
10403;SDS011;5248;47.374;8.486;2022-07-30T09:05:05;2.97;;;2.78;;
10403;SDS011;5248;47.374;8.486;2022-07-30T09:07:34;5.88;;;2.90;;
10403;SDS011;5248;47.374;8.486;2022-07-30T09:10:02;6.25;;;2.45;;
10403;SDS011;5248;47.374;8.486;2022-07-30T09:12:33;2.78;;;2.58;;
10403;SDS011;5248;47.374;8.486;2022-07-30T09:15:01;3.45;;;2.70;;
10403;SDS011;5248;47.374;8.486;2022-07-30T09:17:47;2.80;;;2.55;;
10403;SDS011;5248;47.374;8.486;2022-07-30T09:20:18;2.90;;;2.60;;
10403;SDS011;5248;47.374;8.486;2022-07-30T09:22:47;6.43;;;2.65;;
10403;SDS011;5248;47.374;8.486;2022-07-30T09:25:20;4.30;;;2.78;;
10403;SDS011;5248;47.374;8.486;2022-07-30T09:27:58;5.20;;;3.00;;
10403;SDS011;5248;47.374;8.486;2022-07-30T09:30:25;5.38;;;2.80;;
10403;SDS011;5248;47.374;8.486;2022-07-30T09:32:52;4.43;;;3.00;;
10403;SDS011;5248;47.374;8.486;2022-07-30T09:35:23;3.67;;;2.42;;
10403;SDS011;5248;47.374;8.486;2022-07-30T09:38:00;3.03;;;2.83;;
10403;SDS011;5248;47.374;8.486;2022-07-30T09:40:28;2.70;;;2.50;;
10403;SDS011;5248;47.374;8.486;2022-07-30T09:43:01;3.53;;;3.08;;
10403;SDS011;5248;47.374;8.486;2022-07-30T09:45:29;6.60;;;2.85;;
10403;SDS011;5248;47.374;8.486;2022-07-30T09:47:56;3.30;;;2.78;;
10403;SDS011;5248;47.374;8.486;2022-07-30T09:50:23;3.72;;;2.53;;
10403;SDS011;5248;47.374;8.486;2022-07-30T09:52:51;2.40;;;2.25;;
10403;SDS011;5248;47.374;8.486;2022-07-30T09:55:29;3.80;;;3.47;;
10403;SDS011;5248;47.374;8.486;2022-07-30T09:57:57;3.55;;;3.00;;
10403;SDS011;5248;47.374;8.486;2022-07-30T10:00:25;4.18;;;2.80;;
10403;SDS011;5248;47.374;8.486;2022-07-30T10:02:53;3.00;;;2.65;;
10403;SDS011;5248;47.374;8.486;2022-07-30T10:05:20;2.67;;;2.47;;
10403;SDS011;5248;47.374;8.486;2022-07-30T10:07:49;2.70;;;2.50;;
10403;SDS011;5248;47.374;8.486;2022-07-30T10:10:16;2.60;;;2.40;;
10403;SDS011;5248;47.374;8.486;2022-07-30T10:12:45;2.40;;;2.20;;
10403;SDS011;5248;47.374;8.486;2022-07-30T10:15:14;2.72;;;2.53;;
10403;SDS011;5248;47.374;8.486;2022-07-30T10:17:44;2.75;;;2.53;;
10403;SDS011;5248;47.374;8.486;2022-07-30T10:20:11;3.03;;;2.13;;
10403;SDS011;5248;47.374;8.486;2022-07-30T10:22:38;2.40;;;2.30;;
10403;SDS011;5248;47.374;8.486;2022-07-30T10:25:06;3.28;;;2.90;;
10403;SDS011;5248;47.374;8.486;2022-07-30T10:27:33;3.22;;;2.55;;
10403;SDS011;5248;47.374;8.486;2022-07-30T10:30:01;2.45;;;2.22;;
10403;SDS011;5248;47.374;8.486;2022-07-30T10:32:29;3.75;;;2.40;;
10403;SDS011;5248;47.374;8.486;2022-07-30T10:34:57;2.50;;;2.30;;
10403;SDS011;5248;47.374;8.486;2022-07-30T10:37:25;2.08;;;1.98;;
10403;SDS011;5248;47.374;8.486;2022-07-30T10:39:53;5.13;;;2.20;;
10403;SDS011;5248;47.374;8.486;2022-07-30T10:42:29;2.38;;;2.05;;
10403;SDS011;5248;47.374;8.486;2022-07-30T10:45:18;4.15;;;2.15;;
10403;SDS011;5248;47.374;8.486;2022-07-30T10:47:47;3.55;;;2.78;;
10403;SDS011;5248;47.374;8.486;2022-07-30T10:50:14;3.05;;;2.85;;
10403;SDS011;5248;47.374;8.486;2022-07-30T10:52:46;3.63;;;3.28;;
10403;SDS011;5248;47.374;8.486;2022-07-30T10:55:16;3.33;;;3.05;;
10403;SDS011;5248;47.374;8.486;2022-07-30T10:57:56;2.38;;;2.15;;
10403;SDS011;5248;47.374;8.486;2022-07-30T11:00:25;2.55;;;2.10;;
10403;SDS011;5248;47.374;8.486;2022-07-30T11:03:12;2.03;;;1.92;;
10403;SDS011;5248;47.374;8.486;2022-07-30T11:05:40;3.47;;;2.17;;
10403;SDS011;5248;47.374;8.486;2022-07-30T11:10:56;6.25;;;4.05;;
10403;SDS011;5248;47.374;8.486;2022-07-30T11:16:15;3.50;;;2.50;;
10403;SDS011;5248;47.374;8.486;2022-07-30T11:21:32;2.50;;;2.30;;
10403;SDS011;5248;47.374;8.486;2022-07-30T11:23:59;3.22;;;2.20;;
10403;SDS011;5248;47.374;8.486;2022-07-30T11:29:32;2.17;;;1.90;;
10403;SDS011;5248;47.374;8.486;2022-07-30T11:34:50;2.08;;;1.98;;
10403;SDS011;5248;47.374;8.486;2022-07-30T11:37:17;2.15;;;1.95;;
10403;SDS011;5248;47.374;8.486;2022-07-30T11:42:37;3.25;;;2.55;;
10403;SDS011;5248;47.374;8.486;2022-07-30T11:45:21;2.50;;;2.30;;
10403;SDS011;5248;47.374;8.486;2022-07-30T11:47:52;3.42;;;2.17;;
10403;SDS011;5248;47.374;8.486;2022-07-30T11:50:21;2.20;;;1.95;;
10403;SDS011;5248;47.374;8.486;2022-07-30T11:52:49;1.98;;;1.88;;
10403;SDS011;5248;47.374;8.486;2022-07-30T11:55:22;3.25;;;1.98;;
10403;SDS011;5248;47.374;8.486;2022-07-30T11:57:51;2.22;;;1.80;;
10403;SDS011;5248;47.374;8.486;2022-07-30T12:00:19;2.08;;;1.95;;
10403;SDS011;5248;47.374;8.486;2022-07-30T12:02:46;3.80;;;1.90;;
10403;SDS011;5248;47.374;8.486;2022-07-30T12:05:15;3.08;;;1.75;;
10403;SDS011;5248;47.374;8.486;2022-07-30T12:07:42;2.70;;;1.75;;
10403;SDS011;5248;47.374;8.486;2022-07-30T12:10:12;1.70;;;1.60;;
10403;SDS011;5248;47.374;8.486;2022-07-30T12:12:40;1.85;;;1.75;;
10403;SDS011;5248;47.374;8.486;2022-07-30T12:15:07;1.98;;;1.77;;
10403;SDS011;5248;47.374;8.486;2022-07-30T12:17:40;4.22;;;2.00;;
10403;SDS011;5248;47.374;8.486;2022-07-30T12:20:16;2.00;;;1.88;;
10403;SDS011;5248;47.374;8.486;2022-07-30T12:22:43;1.92;;;1.83;;
10403;SDS011;5248;47.374;8.486;2022-07-30T12:25:11;1.80;;;1.70;;
10403;SDS011;5248;47.374;8.486;2022-07-30T12:27:38;1.85;;;1.73;;
10403;SDS011;5248;47.374;8.486;2022-07-30T12:30:05;1.77;;;1.67;;
10403;SDS011;5248;47.374;8.486;2022-07-30T12:32:33;2.08;;;1.80;;
10403;SDS011;5248;47.374;8.486;2022-07-30T12:35:00;2.50;;;1.70;;
10403;SDS011;5248;47.374;8.486;2022-07-30T12:37:28;1.77;;;1.60;;
10403;SDS011;5248;47.374;8.486;2022-07-30T12:40:08;2.45;;;1.88;;
10403;SDS011;5248;47.374;8.486;2022-07-30T12:42:36;1.70;;;1.60;;
10403;SDS011;5248;47.374;8.486;2022-07-30T12:45:24;2.78;;;1.75;;
10403;SDS011;5248;47.374;8.486;2022-07-30T12:47:51;2.10;;;1.55;;
10403;SDS011;5248;47.374;8.486;2022-07-30T12:50:17;2.50;;;1.60;;
10403;SDS011;5248;47.374;8.486;2022-07-30T12:52:48;1.73;;;1.63;;
10403;SDS011;5248;47.374;8.486;2022-07-30T12:55:16;5.45;;;5.05;;
10403;SDS011;5248;47.374;8.486;2022-07-30T12:57:50;2.47;;;2.33;;
10403;SDS011;5248;47.374;8.486;2022-07-30T13:00:20;2.40;;;1.70;;
10403;SDS011;5248;47.374;8.486;2022-07-30T13:02:47;2.45;;;1.75;;
10403;SDS011;5248;47.374;8.486;2022-07-30T13:05:14;1.80;;;1.70;;
10403;SDS011;5248;47.374;8.486;2022-07-30T13:07:57;1.67;;;1.58;;
10403;SDS011;5248;47.374;8.486;2022-07-30T13:10:25;1.38;;;1.30;;
10403;SDS011;5248;47.374;8.486;2022-07-30T13:12:52;2.13;;;1.42;;
10403;SDS011;5248;47.374;8.486;2022-07-30T13:15:19;1.45;;;1.35;;
10403;SDS011;5248;47.374;8.486;2022-07-30T13:17:46;1.45;;;1.40;;
10403;SDS011;5248;47.374;8.486;2022-07-30T13:20:13;1.58;;;1.48;;
10403;SDS011;5248;47.374;8.486;2022-07-30T13:22:41;1.70;;;1.60;;
10403;SDS011;5248;47.374;8.486;2022-07-30T13:25:09;1.38;;;1.27;;
10403;SDS011;5248;47.374;8.486;2022-07-30T13:27:36;2.13;;;1.30;;
10403;SDS011;5248;47.374;8.486;2022-07-30T13:30:03;1.80;;;1.45;;
10403;SDS011;5248;47.374;8.486;2022-07-30T13:32:31;1.55;;;1.48;;
10403;SDS011;5248;47.374;8.486;2022-07-30T13:34:57;2.05;;;1.38;;
10403;SDS011;5248;47.374;8.486;2022-07-30T13:37:24;3.08;;;1.50;;
10403;SDS011;5248;47.374;8.486;2022-07-30T13:39:50;1.65;;;1.55;;
10403;SDS011;5248;47.374;8.486;2022-07-30T13:42:19;3.17;;;1.75;;
10403;SDS011;5248;47.374;8.486;2022-07-30T13:44:45;2.40;;;1.27;;
10403;SDS011;5248;47.374;8.486;2022-07-30T13:47:12;1.50;;;1.40;;
10403;SDS011;5248;47.374;8.486;2022-07-30T13:49:40;2.75;;;1.35;;
10403;SDS011;5248;47.374;8.486;2022-07-30T13:52:10;3.92;;;1.55;;
10403;SDS011;5248;47.374;8.486;2022-07-30T13:54:37;2.85;;;1.45;;
10403;SDS011;5248;47.374;8.486;2022-07-30T13:57:03;2.45;;;1.20;;
10403;SDS011;5248;47.374;8.486;2022-07-30T13:59:31;1.67;;;1.30;;
10403;SDS011;5248;47.374;8.486;2022-07-30T14:01:59;2.92;;;1.42;;
10403;SDS011;5248;47.374;8.486;2022-07-30T14:04:27;2.70;;;1.38;;
10403;SDS011;5248;47.374;8.486;2022-07-30T14:06:54;1.90;;;1.70;;
10403;SDS011;5248;47.374;8.486;2022-07-30T14:09:21;1.20;;;1.10;;
10403;SDS011;5248;47.374;8.486;2022-07-30T14:11:48;3.40;;;1.40;;
10403;SDS011;5248;47.374;8.486;2022-07-30T14:14:14;2.53;;;1.60;;
10403;SDS011;5248;47.374;8.486;2022-07-30T14:16:42;2.00;;;1.70;;
10403;SDS011;5248;47.374;8.486;2022-07-30T14:19:10;1.70;;;1.60;;
10403;SDS011;5248;47.374;8.486;2022-07-30T14:21:37;1.95;;;1.38;;
10403;SDS011;5248;47.374;8.486;2022-07-30T14:24:04;3.17;;;1.60;;
10403;SDS011;5248;47.374;8.486;2022-07-30T14:26:32;1.45;;;1.35;;
10403;SDS011;5248;47.374;8.486;2022-07-30T14:28:59;1.73;;;1.58;;
10403;SDS011;5248;47.374;8.486;2022-07-30T14:31:26;2.95;;;1.50;;
10403;SDS011;5248;47.374;8.486;2022-07-30T14:33:54;1.73;;;1.30;;
10403;SDS011;5248;47.374;8.486;2022-07-30T14:36:21;4.10;;;1.83;;
10403;SDS011;5248;47.374;8.486;2022-07-30T14:38:49;1.63;;;1.52;;
10403;SDS011;5248;47.374;8.486;2022-07-30T14:41:16;2.70;;;1.60;;
10403;SDS011;5248;47.374;8.486;2022-07-30T14:43:42;2.05;;;1.58;;
10403;SDS011;5248;47.374;8.486;2022-07-30T14:46:09;3.40;;;1.75;;
10403;SDS011;5248;47.374;8.486;2022-07-30T14:48:36;2.38;;;1.52;;
10403;SDS011;5248;47.374;8.486;2022-07-30T14:51:05;1.88;;;1.52;;
10403;SDS011;5248;47.374;8.486;2022-07-30T14:53:31;1.60;;;1.50;;
10403;SDS011;5248;47.374;8.486;2022-07-30T14:55:58;2.17;;;1.70;;
10403;SDS011;5248;47.374;8.486;2022-07-30T14:58:25;2.47;;;1.77;;
10403;SDS011;5248;47.374;8.486;2022-07-30T15:00:51;1.50;;;1.40;;
10403;SDS011;5248;47.374;8.486;2022-07-30T15:03:18;5.30;;;2.08;;
10403;SDS011;5248;47.374;8.486;2022-07-30T15:05:45;1.40;;;1.30;;
10403;SDS011;5248;47.374;8.486;2022-07-30T15:08:13;2.65;;;1.75;;
10403;SDS011;5248;47.374;8.486;2022-07-30T15:10:39;1.35;;;1.25;;
10403;SDS011;5248;47.374;8.486;2022-07-30T15:13:06;2.10;;;1.60;;
10403;SDS011;5248;47.374;8.486;2022-07-30T15:15:33;1.60;;;1.50;;
10403;SDS011;5248;47.374;8.486;2022-07-30T15:18:00;3.30;;;1.90;;
10403;SDS011;5248;47.374;8.486;2022-07-30T15:20:27;1.42;;;1.33;;
10403;SDS011;5248;47.374;8.486;2022-07-30T15:22:53;4.10;;;1.45;;